Time;durP1;ratioP1;P1;durP2;ratioP2;P2;SDS_P1;SDS_P2;PMS_P1;PMS_P2;Temp;Humidity;BMP_temperature;BMP_pressure;BME280_temperature;BME280_humidity;BME280_pressure;Samples;Min_cycle;Max_cycle;Signal;HPM_P1;HPM_P2
2022/08/12 00:47:30;;;;;;;4.70;2.90;;;;;;;14.75;77.95;100530.14;213379;1276;144670;-66
2022/08/12 00:52:35;;;;;;;3.70;3.40;;;;;;;14.89;78.19;100529.70;213537;1276;141485;-66
2022/08/12 00:57:44;;;;;;;3.80;3.40;;;;;;;14.99;78.23;100535.05;213499;1276;142323;-66
2022/08/12 01:02:51;;;;;;;4.70;3.40;;;;;;;15.05;78.30;100530.96;213282;1276;141289;-66
2022/08/12 01:13:20;;;;;;;4.30;2.70;;;;;;;15.26;78.57;100536.50;213310;1277;141256;-65
2022/08/12 01:18:27;;;;;;;3.00;2.80;;;;;;;15.38;78.79;100542.80;213376;1276;140879;-64
2022/08/12 01:23:53;;;;;;;3.10;2.80;;;;;;;15.41;78.74;100538.54;213517;1276;141148;-64
2022/08/12 01:28:58;;;;;;;9.20;3.30;;;;;;;15.46;78.82;100545.71;213599;1277;141960;-64
2022/08/12 01:34:13;;;;;;;6.60;3.50;;;;;;;15.52;78.79;100547.27;213915;1276;142158;-66
2022/08/12 01:39:58;;;;;;;4.20;3.20;;;;;;;15.59;78.80;100543.95;215790;1277;140224;-66
2022/08/12 01:45:23;;;;;;;3.20;3.00;;;;;;;15.73;78.95;100538.15;213988;1277;2180458;-66
2022/08/12 01:50:52;;;;;;;3.00;2.70;;;;;;;15.84;78.68;100523.30;215495;1276;140349;-65
2022/08/12 01:56:03;;;;;;;2.70;2.50;;;;;;;15.93;78.50;100514.25;214230;1276;140282;-66
2022/08/12 02:01:10;;;;;;;2.90;2.70;;;;;;;15.92;78.08;100512.95;213615;1277;140413;-65
2022/08/12 02:12:24;;;;;;;4.00;2.70;;;;;;;15.81;77.86;100501.77;213477;1277;141324;-65
2022/08/12 02:18:08;;;;;;;4.40;3.10;;;;;;;15.75;77.88;100495.50;213380;1277;140953;-67
2022/08/12 02:23:15;;;;;;;4.80;3.30;;;;;;;15.68;77.61;100498.31;213412;1276;139475;-67
2022/08/12 02:28:19;;;;;;;3.40;3.10;;;;;;;15.60;77.71;100496.00;213432;1277;141086;-68
2022/08/12 02:33:24;;;;;;;2.90;2.70;;;;;;;15.56;77.61;100486.27;213394;1276;141593;-65
2022/08/12 02:38:31;;;;;;;3.40;3.10;;;;;;;15.45;77.59;100472.61;213418;1277;140391;-63
2022/08/12 02:43:54;;;;;;;4.40;2.80;;;;;;;15.41;77.92;100469.60;213567;1277;230841;-65
2022/08/12 02:49:02;;;;;;;4.30;3.50;;;;;;;15.41;77.93;100461.77;213326;1277;140505;-66
2022/08/12 02:54:07;;;;;;;7.20;3.10;;;;;;;15.38;77.88;100455.21;213612;1277;140695;-66
2022/08/12 02:59:15;;;;;;;8.20;2.70;;;;;;;15.28;77.53;100452.02;213372;1276;140266;-64
2022/08/12 03:04:29;;;;;;;3.70;3.40;;;;;;;15.19;77.91;100445.35;213348;1277;143008;-64
2022/08/12 03:09:38;;;;;;;6.70;3.20;;;;;;;15.17;77.97;100443.83;213541;1277;209170;-65
2022/08/12 03:15:10;;;;;;;6.90;2.60;;;;;;;15.19;77.93;100450.19;213406;1276;140843;-66
2022/08/12 03:20:16;;;;;;;3.90;2.70;;;;;;;15.10;77.90;100446.94;216014;1275;142107;-66
2022/08/12 03:25:26;;;;;;;2.80;2.50;;;;;;;15.08;77.83;100448.20;216160;1276;141610;-66
2022/08/12 03:30:31;;;;;;;2.60;2.40;;;;;;;15.10;78.09;100451.29;215919;1276;142016;-65
2022/08/12 03:35:38;;;;;;;3.10;2.90;;;;;;;15.10;77.78;100461.88;215832;1276;142842;-65
2022/08/12 04:02:40;;;;;;;3.50;3.30;;;;;;;15.35;78.51;100462.54;213795;1277;141402;-65
2022/08/12 04:07:45;;;;;;;2.90;2.70;;;;;;;15.53;78.69;100470.84;213304;1277;142033;-63
2022/08/12 04:13:18;;;;;;;3.20;2.90;;;;;;;15.62;78.60;100468.94;214748;1276;140284;-66
2022/08/12 04:18:23;;;;;;;3.30;2.90;;;;;;;15.63;78.48;100467.71;213711;1276;143181;-66
2022/08/12 04:23:29;;;;;;;3.10;2.60;;;;;;;15.77;78.72;100478.96;214216;1276;141855;-64
2022/08/12 04:28:33;;;;;;;4.10;3.60;;;;;;;15.87;78.62;100483.60;213921;1276;142019;-66
2022/08/12 04:33:41;;;;;;;3.50;3.20;;;;;;;15.95;78.58;100479.86;213946;1276;141194;-66
2022/08/12 04:38:45;;;;;;;3.30;3.00;;;;;;;15.95;78.65;100483.20;214243;1276;142159;-66
2022/08/12 04:43:49;;;;;;;3.40;3.20;;;;;;;16.09;79.01;100481.52;214064;1277;152203;-63
2022/08/12 04:49:05;;;;;;;8.20;3.30;;;;;;;16.34;79.19;100468.71;214815;1276;141679;-65
2022/08/12 04:54:10;;;;;;;3.60;3.30;;;;;;;16.59;78.97;100468.94;213335;1277;140714;-64
2022/08/12 04:59:22;;;;;;;7.30;4.60;;;;;;;16.79;78.55;100469.18;214718;1277;140663;-65
2022/08/12 05:04:28;;;;;;;4.90;3.40;;;;;;;17.06;78.84;100468.04;213719;1277;140629;-66
2022/08/12 05:09:33;;;;;;;3.60;3.30;;;;;;;17.31;78.67;100475.77;214837;1276;140577;-64
2022/08/12 05:14:59;;;;;;;5.40;3.10;;;;;;;17.67;78.29;100477.85;214093;1276;141011;-63
2022/08/12 05:20:04;;;;;;;5.30;4.10;;;;;;;18.02;78.01;100475.95;214326;1276;140044;-65
2022/08/12 05:25:14;;;;;;;3.10;2.40;;;;;;;18.37;77.71;100471.91;215556;1277;151744;-63
2022/08/12 05:30:21;;;;;;;3.20;3.00;;;;;;;18.57;77.65;100470.73;214606;1276;140274;-64
2022/08/12 05:35:25;;;;;;;4.80;3.00;;;;;;;18.57;77.34;100472.20;215381;1275;141768;-64
2022/08/12 05:40:29;;;;;;;4.90;3.80;;;;;;;18.60;77.15;100476.13;215461;1276;140642;-64
2022/08/12 05:45:33;;;;;;;3.30;3.10;;;;;;;18.59;76.41;100483.83;215858;1276;141289;-65
2022/08/12 05:50:37;;;;;;;8.00;3.40;;;;;;;18.58;76.35;100480.05;215911;1276;141306;-63
2022/08/12 05:55:42;;;;;;;4.50;3.30;;;;;;;18.60;76.09;100473.95;215101;1276;141338;-64
2022/08/12 06:00:46;;;;;;;3.60;3.30;;;;;;;18.69;75.81;100469.90;214428;1275;140679;-64
2022/08/12 06:05:51;;;;;;;5.80;5.20;;;;;;;18.80;75.16;100477.84;213842;1276;141924;-64
2022/08/12 06:11:00;;;;;;;7.80;3.80;;;;;;;18.94;75.23;100477.83;213856;1276;139953;-65
2022/08/12 06:16:06;;;;;;;;;;;;;;;19.46;75.17;100480.16;214225;1277;141205;-65
2022/08/12 06:21:13;;;;;;;5.90;4.40;;;;;;;19.99;74.15;100472.33;214564;1276;126196;-66
2022/08/12 06:26:19;;;;;;;6.70;5.00;;;;;;;20.29;73.08;100475.34;213863;1276;139908;-66
2022/08/12 06:31:24;;;;;;;11.30;4.90;;;;;;;20.33;72.22;100479.92;213207;1276;139611;-66
2022/08/12 06:36:32;;;;;;;4.60;4.20;;;;;;;20.31;71.92;100486.87;213917;1276;140116;-66
2022/08/12 06:47:21;;;;;;;10.70;4.70;;;;;;;21.16;71.12;100477.36;213482;1276;140211;-65
2022/08/12 06:52:27;;;;;;;4.30;3.90;;;;;;;21.38;70.49;100478.23;213681;1276;140985;-65
2022/08/12 06:57:31;;;;;;;7.60;5.00;;;;;;;21.41;69.71;100472.43;213916;1275;140327;-66
2022/08/12 07:02:56;;;;;;;5.20;4.30;;;;;;;21.92;69.05;100472.24;213012;1276;139749;-65
2022/08/12 07:08:18;;;;;;;6.00;4.80;;;;;;;23.43;68.00;100469.84;214228;1277;140839;-65
2022/08/12 07:13:23;;;;;;;11.50;4.50;;;;;;;25.14;66.16;100461.73;214830;1276;140708;-64
2022/08/12 07:18:31;;;;;;;4.40;3.80;;;;;;;26.40;64.35;100468.03;214896;1276;140290;-65
2022/08/12 07:23:38;;;;;;;11.50;4.60;;;;;;;27.29;63.03;100463.02;215004;1276;140453;-65
2022/08/12 07:28:44;;;;;;;4.80;4.40;;;;;;;27.90;61.28;100462.59;215503;1275;140391;-64
2022/08/12 07:33:49;;;;;;;4.00;3.60;;;;;;;28.22;59.14;100459.98;215490;1275;140846;-64
2022/08/12 07:38:53;;;;;;;6.50;4.00;;;;;;;28.51;58.38;100458.85;215905;1275;166529;-65
2022/08/12 07:44:04;;;;;;;3.70;3.50;;;;;;;28.74;56.88;100460.39;215833;1275;141979;-64
2022/08/12 07:49:14;;;;;;;4.00;3.70;;;;;;;28.93;56.08;100461.70;215035;1275;141135;-63
2022/08/12 07:54:18;;;;;;;5.60;4.30;;;;;;;29.15;55.33;100467.23;215769;1275;141245;-64
2022/08/12 07:59:22;;;;;;;5.60;3.70;;;;;;;28.90;54.06;100469.97;215469;1277;153957;-64
2022/08/12 08:09:56;;;;;;;3.80;3.50;;;;;;;28.85;53.39;100472.22;215321;1276;140220;-65
2022/08/12 08:15:02;;;;;;;3.80;3.60;;;;;;;29.03;52.81;100472.00;214521;1276;140024;-64
2022/08/12 08:20:08;;;;;;;5.80;4.80;;;;;;;29.27;52.33;100471.45;213567;1276;140686;-65
2022/08/12 08:25:13;;;;;;;7.30;3.90;;;;;;;29.48;51.83;100468.27;215321;1276;141814;-65
2022/08/12 08:30:41;;;;;;;4.60;3.80;;;;;;;29.52;51.10;100471.05;212969;1276;141972;-65
2022/08/12 08:35:47;;;;;;;4.60;4.20;;;;;;;29.27;50.96;100470.50;212909;1276;142011;-65
2022/08/12 08:46:13;;;;;;;3.80;3.60;;;;;;;28.88;50.87;100472.80;213774;1276;141414;-64
2022/08/12 08:51:17;;;;;;;5.30;4.80;;;;;;;28.75;50.90;100471.33;213116;1276;140349;-65
2022/08/12 08:56:21;;;;;;;4.30;4.00;;;;;;;28.69;51.47;100472.77;213111;1276;141255;-64
2022/08/12 09:01:25;;;;;;;5.70;4.40;;;;;;;28.77;51.30;100469.66;214889;1276;141728;-63
2022/08/12 09:06:40;;;;;;;5.40;4.30;;;;;;;28.86;50.93;100477.38;213063;1276;141828;-64
2022/08/12 09:17:50;;;;;;;5.20;4.30;;;;;;;28.96;50.39;100478.89;212966;1276;141662;-64
2022/08/12 09:22:56;;;;;;;5.10;4.60;;;;;;;28.93;50.80;100477.05;215133;1276;142504;-63
2022/08/12 09:28:02;;;;;;;4.70;4.30;;;;;;;28.70;49.99;100482.49;215304;1276;139600;-66
2022/08/12 09:33:13;;;;;;;5.20;4.60;;;;;;;28.83;50.55;100479.21;215736;1276;140027;-65
2022/08/12 09:38:39;;;;;;;7.90;4.80;;;;;;;28.72;50.16;100471.45;215640;1276;140963;-64
2022/08/12 09:49:41;;;;;;;9.90;4.90;;;;;;;29.00;50.38;100468.77;216051;1276;140253;-64
2022/08/12 09:54:47;;;;;;;4.00;3.80;;;;;;;29.28;49.67;100467.80;215788;1276;140514;-65
2022/08/12 09:59:55;;;;;;;5.40;4.90;;;;;;;29.24;48.62;100460.14;214798;1276;140098;-65
2022/08/12 10:05:21;;;;;;;4.70;4.10;;;;;;;29.27;48.63;100454.98;213480;1277;141411;-65
2022/08/12 10:16:21;;;;;;;6.80;4.50;;;;;;;29.54;47.97;100455.89;213344;1276;139699;-64
2022/08/12 10:21:35;;;;;;;5.10;4.60;;;;;;;29.74;47.60;100459.80;215000;1276;141541;-64
2022/08/12 10:32:15;;;;;;;4.90;4.60;;;;;;;29.02;47.55;100449.70;214163;1276;139674;-64
2022/08/12 10:37:40;;;;;;;6.20;5.10;;;;;;;29.37;47.57;100441.08;213573;1275;140532;-64
2022/08/12 10:48:27;;;;;;;5.70;5.30;;;;;;;29.23;47.81;100433.75;213591;1276;221391;-63
2022/08/12 10:53:36;;;;;;;6.30;5.40;;;;;;;29.51;47.87;100435.36;214079;1276;140566;-63
2022/08/12 10:58:48;;;;;;;5.50;4.90;;;;;;;29.45;47.50;100432.11;214086;1276;140685;-64
2022/08/12 11:03:53;;;;;;;4.90;4.60;;;;;;;29.34;46.87;100428.75;213899;1276;140972;-64
2022/08/12 11:09:26;;;;;;;5.90;4.70;;;;;;;29.16;46.71;100418.77;214220;1276;142026;-64
2022/08/12 11:14:52;;;;;;;6.60;4.60;;;;;;;29.08;46.86;100420.54;214850;1275;140967;-64
2022/08/12 11:19:59;;;;;;;5.20;4.80;;;;;;;29.37;46.45;100422.83;215284;1276;140527;-65
2022/08/12 11:25:09;;;;;;;4.60;4.30;;;;;;;29.60;46.40;100423.11;214023;1276;141555;-63
2022/08/12 11:30:14;;;;;;;9.60;5.10;;;;;;;29.57;45.69;100429.38;215721;1276;141884;-66
2022/08/12 11:35:35;;;;;;;5.00;4.70;;;;;;;29.65;46.07;100430.63;215806;1275;140603;-64
2022/08/12 11:40:41;;;;;;;4.90;4.50;;;;;;;29.56;45.70;100421.61;215929;1276;141027;-65
2022/08/12 11:45:45;;;;;;;5.30;4.90;;;;;;;29.66;45.75;100412.45;215856;1276;140787;-64
2022/08/12 11:50:56;;;;;;;4.40;4.20;;;;;;;29.72;45.38;100420.09;214769;1276;142230;-64
2022/08/12 11:56:06;;;;;;;4.70;4.40;;;;;;;29.89;45.39;100416.98;215743;1276;140981;-64
2022/08/12 12:01:14;;;;;;;8.30;3.90;;;;;;;30.17;45.54;100410.61;215725;1276;141245;-64
2022/08/12 12:06:39;;;;;;;4.40;3.90;;;;;;;29.62;44.41;100414.37;215902;1276;140272;-65
2022/08/12 12:11:51;;;;;;;4.80;4.50;;;;;;;29.47;44.97;100410.36;213138;1276;141857;-64
2022/08/12 12:17:00;;;;;;;4.80;4.40;;;;;;;29.23;44.98;100411.70;214873;1276;140589;-63
2022/08/12 12:22:04;;;;;;;;;;;;;;;29.05;45.40;100409.02;214702;1276;156040;-65
2022/08/12 12:27:10;;;;;;;4.00;3.60;;;;;;;28.90;45.71;100409.51;214236;1276;127424;-64
2022/08/12 12:32:21;;;;;;;10.00;5.30;;;;;;;28.83;45.92;100401.17;215064;1276;141525;-66
2022/08/12 12:37:32;;;;;;;4.40;4.10;;;;;;;28.87;46.42;100391.77;213580;1277;143118;-64
2022/08/12 12:42:57;;;;;;;3.80;3.60;;;;;;;29.04;46.32;100385.05;212873;1276;141372;-64
2022/08/12 12:48:10;;;;;;;4.10;3.80;;;;;;;28.97;45.23;100381.70;212827;1276;144609;-65
2022/08/12 12:53:20;;;;;;;4.40;4.00;;;;;;;28.90;45.19;100379.64;213769;1277;140672;-62
2022/08/12 12:58:45;;;;;;;4.30;4.00;;;;;;;28.84;45.30;100371.28;214990;1276;141213;-64
2022/08/12 13:03:55;;;;;;;4.90;4.50;;;;;;;28.85;45.16;100369.43;215494;1276;139610;-64
2022/08/12 13:09:06;;;;;;;3.60;3.40;;;;;;;28.87;45.32;100371.08;213283;1277;140935;-64
2022/08/12 13:14:15;;;;;;;4.10;3.80;;;;;;;28.81;45.17;100370.08;213273;1276;140812;-64
2022/08/12 13:19:37;;;;;;;11.50;4.00;;;;;;;28.80;45.07;100367.21;214496;1276;144471;-64
2022/08/12 13:24:53;;;;;;;4.20;4.00;;;;;;;28.62;44.84;100365.66;212991;1277;142388;-64
2022/08/12 13:29:59;;;;;;;4.50;3.30;;;;;;;28.44;45.03;100362.29;213973;1276;141151;-65
2022/08/12 13:35:08;;;;;;;4.40;4.10;;;;;;;28.23;45.24;100360.46;215560;1277;139934;-64
2022/08/12 13:40:25;;;;;;;5.20;4.90;;;;;;;28.10;45.76;100355.29;215332;1276;139948;-65
2022/08/12 13:45:30;;;;;;;5.40;4.70;;;;;;;28.02;46.05;100355.23;213443;1277;2184048;-65
2022/08/12 13:50:38;;;;;;;5.70;5.20;;;;;;;27.98;46.26;100358.59;215644;1276;140983;-65
2022/08/12 13:55:48;;;;;;;5.20;4.80;;;;;;;27.99;46.69;100353.84;215429;1276;139572;-65
2022/08/12 14:01:06;;;;;;;5.10;4.60;;;;;;;27.98;46.61;100358.68;213846;1276;140002;-64
2022/08/12 14:06:16;;;;;;;4.90;4.60;;;;;;;28.01;47.10;100350.27;214886;1276;140508;-65
2022/08/12 14:11:23;;;;;;;6.40;3.90;;;;;;;28.08;47.45;100352.31;214395;1277;140356;-64
2022/08/12 14:16:35;;;;;;;6.10;5.60;;;;;;;27.95;47.03;100346.81;214835;1276;141012;-65
2022/08/12 14:21:56;;;;;;;5.30;4.90;;;;;;;27.81;47.13;100342.11;213270;1276;142145;-63
2022/08/12 14:27:11;;;;;;;5.70;5.30;;;;;;;27.71;47.61;100341.51;213778;1276;141182;-64
2022/08/12 14:32:16;;;;;;;5.90;5.50;;;;;;;27.68;47.83;100339.58;213220;1277;141542;-63
2022/08/12 14:37:25;;;;;;;9.40;5.30;;;;;;;27.60;48.10;100338.94;212642;1277;140887;-63
2022/08/12 14:42:53;;;;;;;5.70;5.30;;;;;;;27.53;48.24;100333.11;214506;1276;142966;-64
2022/08/12 14:48:02;;;;;;;6.20;5.70;;;;;;;27.39;48.68;100327.89;212957;1277;140639;-65
2022/08/12 14:53:12;;;;;;;;;;;;;;;27.17;49.11;100324.60;213828;1277;140827;-64
2022/08/12 15:04:34;;;;;;;6.00;5.40;;;;;;;26.98;50.25;100316.18;215046;1276;140479;-63
2022/08/12 15:09:48;;;;;;;6.50;5.80;;;;;;;26.88;50.58;100313.55;214490;1276;139992;-63
2022/08/12 15:15:05;;;;;;;6.40;5.80;;;;;;;26.76;50.58;100317.09;215073;1277;140784;-64
2022/08/12 15:20:17;;;;;;;9.60;6.20;;;;;;;26.63;50.59;100316.59;214086;1276;141957;-64
2022/08/12 15:25:44;;;;;;;5.90;5.30;;;;;;;26.52;51.16;100312.65;215160;1276;140727;-63
2022/08/12 15:30:51;;;;;;;6.70;6.00;;;;;;;26.41;51.76;100311.42;213873;1276;140744;-64
2022/08/12 15:35:56;;;;;;;7.40;6.30;;;;;;;26.36;52.24;100312.50;213922;1277;140503;-63
2022/08/12 15:41:05;;;;;;;7.50;6.80;;;;;;;26.29;52.62;100312.58;213681;1276;140822;-64
2022/08/12 15:46:10;;;;;;;7.60;6.60;;;;;;;26.23;53.03;100311.02;215822;1276;141633;-66
2022/08/12 15:51:34;;;;;;;6.80;6.10;;;;;;;26.16;53.08;100308.73;214883;1276;139709;-65
2022/08/12 15:57:04;;;;;;;10.00;6.70;;;;;;;25.97;53.25;100315.70;214845;1276;141491;-64
2022/08/12 16:02:16;;;;;;;8.10;6.70;;;;;;;25.84;53.31;100315.39;215016;1276;141143;-63
2022/08/12 16:07:25;;;;;;;8.30;7.60;;;;;;;25.72;53.49;100311.89;214196;1276;139982;-63
2022/08/12 16:12:55;;;;;;;8.10;7.40;;;;;;;25.60;53.72;100304.05;214107;1276;141169;-65
2022/08/12 16:18:12;;;;;;;8.70;7.90;;;;;;;25.46;53.96;100302.16;214069;1276;140356;-64
2022/08/12 16:23:28;;;;;;;8.10;6.90;;;;;;;25.33;54.26;100304.50;214387;1276;140743;-65
2022/08/12 16:28:58;;;;;;;11.40;10.20;;;;;;;25.24;54.60;100312.66;214272;1276;139664;-65
2022/08/12 16:34:22;;;;;;;9.10;8.20;;;;;;;25.15;54.98;100316.85;214227;1276;140992;-63
2022/08/12 16:39:45;;;;;;;13.10;10.50;;;;;;;25.09;55.51;100310.58;214626;1276;140085;-63
2022/08/12 16:45:11;;;;;;;13.20;9.10;;;;;;;25.05;55.70;100312.66;213534;1276;140084;-63
2022/08/12 16:50:23;;;;;;;10.60;8.80;;;;;;;24.96;56.17;100305.73;213597;1277;139685;-63
2022/08/12 16:55:36;;;;;;;11.90;9.30;;;;;;;24.86;56.50;100304.67;213605;1277;140586;-64
2022/08/12 17:00:48;;;;;;;8.20;7.50;;;;;;;24.78;57.21;100301.25;213020;1276;140884;-64
2022/08/12 17:05:53;;;;;;;11.00;8.60;;;;;;;24.70;57.74;100303.60;213436;1276;140159;-64
2022/08/12 17:10:59;;;;;;;10.60;9.60;;;;;;;24.62;58.04;100296.25;214906;1275;139889;-64
2022/08/12 17:16:06;;;;;;;9.80;8.40;;;;;;;24.53;58.57;100289.22;213795;1277;139503;-64
2022/08/12 17:21:20;;;;;;;10.40;8.30;;;;;;;24.44;58.80;100287.61;215107;1276;140616;-64
2022/08/12 17:26:44;;;;;;;9.20;8.40;;;;;;;24.34;59.16;100279.61;213542;1276;141070;-64
2022/08/12 17:31:53;;;;;;;9.40;8.20;;;;;;;24.24;59.43;100277.84;215681;1276;140590;-63
2022/08/12 17:37:05;;;;;;;8.90;8.20;;;;;;;24.11;59.16;100274.55;214665;1276;140401;-63
2022/08/12 17:42:09;;;;;;;8.00;7.40;;;;;;;24.00;59.66;100274.26;214141;1276;139554;-62
2022/08/12 17:47:35;;;;;;;8.30;7.60;;;;;;;23.88;59.81;100266.71;215813;1276;141165;-64
2022/08/12 17:52:41;;;;;;;8.70;7.90;;;;;;;23.78;60.11;100263.59;215260;1276;140329;-63
2022/08/12 17:57:56;;;;;;;12.90;8.90;;;;;;;23.71;60.43;100253.34;215656;1276;140191;-64
2022/08/12 18:03:03;;;;;;;8.70;7.80;;;;;;;23.61;60.74;100241.45;214473;1276;140741;-64
2022/08/12 18:08:10;;;;;;;8.80;7.90;;;;;;;23.49;61.27;100233.41;215502;1276;140570;-64
2022/08/12 18:13:15;;;;;;;9.80;8.10;;;;;;;23.39;61.54;100236.84;214978;1276;140218;-65
2022/08/12 18:18:39;;;;;;;9.80;8.60;;;;;;;23.29;62.00;100246.02;213197;1276;140007;-65
2022/08/12 18:23:47;;;;;;;10.60;9.50;;;;;;;23.21;62.21;100246.17;213851;1276;140917;-64
2022/08/12 18:28:59;;;;;;;9.00;8.20;;;;;;;23.11;62.57;100252.58;214247;1276;139956;-63
2022/08/12 18:34:05;;;;;;;10.00;8.60;;;;;;;23.02;62.67;100256.46;215020;1276;141114;-63
2022/08/12 18:39:11;;;;;;;8.90;8.20;;;;;;;22.95;62.98;100255.59;214031;1277;141283;-64
2022/08/12 18:44:24;;;;;;;9.60;8.80;;;;;;;22.82;63.40;100246.08;213023;1276;141832;-67
2022/08/12 18:49:30;;;;;;;11.20;8.80;;;;;;;22.70;63.50;100239.55;213086;1276;142643;-65
2022/08/12 18:54:46;;;;;;;10.00;8.70;;;;;;;22.62;63.96;100240.55;213504;1276;142022;-65
2022/08/12 19:00:05;;;;;;;11.30;9.70;;;;;;;22.52;64.12;100241.44;213872;1276;141608;-64
2022/08/12 19:05:13;;;;;;;12.90;9.90;;;;;;;22.42;64.37;100245.97;213078;1276;141766;-64
2022/08/12 19:10:19;;;;;;;10.50;9.50;;;;;;;22.30;64.55;100249.24;213840;1276;141237;-63
2022/08/12 19:15:27;;;;;;;10.60;9.70;;;;;;;22.17;64.84;100252.90;214550;1276;141192;-65
2022/08/12 19:20:34;;;;;;;12.00;10.80;;;;;;;22.08;65.18;100250.89;215295;1276;233116;-65
2022/08/12 19:25:40;;;;;;;;;;;;;;;22.02;65.33;100252.34;215826;1276;140760;-65
2022/08/12 19:37:03;;;;;;;11.40;9.70;;;;;;;21.91;65.90;100261.92;215760;1276;141973;-64
2022/08/12 19:42:07;;;;;;;;;;;;;;;21.85;66.06;100259.60;214303;1275;140878;-64
2022/08/12 19:47:14;;;;;;;11.10;10.20;;;;;;;21.76;66.35;100261.54;215508;1275;128847;-63
2022/08/12 19:52:20;;;;;;;10.60;9.60;;;;;;;21.75;66.57;100269.85;214805;1276;141028;-65
2022/08/12 19:57:29;;;;;;;10.00;9.10;;;;;;;21.75;66.83;100264.48;214475;1276;141321;-64
2022/08/12 20:02:35;;;;;;;11.40;10.30;;;;;;;21.72;66.77;100247.88;213621;1276;140767;-66
2022/08/12 20:07:40;;;;;;;11.20;9.50;;;;;;;21.73;67.04;100247.70;214087;1276;141731;-65
2022/08/12 20:13:03;;;;;;;9.70;8.80;;;;;;;21.71;67.06;100250.02;214010;1276;140684;-64
2022/08/12 20:18:22;;;;;;;11.00;9.40;;;;;;;21.67;67.13;100248.13;213746;1276;140317;-63
2022/08/12 20:23:48;;;;;;;11.00;9.80;;;;;;;21.64;67.32;100250.29;213821;1276;140258;-66
2022/08/12 20:29:04;;;;;;;18.80;10.50;;;;;;;21.61;67.45;100249.37;214727;1275;141466;-64
2022/08/12 20:34:09;;;;;;;11.80;10.60;;;;;;;21.59;67.50;100250.27;213334;1276;141576;-66
2022/08/12 20:39:16;;;;;;;10.30;9.30;;;;;;;21.52;67.60;100255.09;213367;1276;140720;-65
2022/08/12 20:44:42;;;;;;;10.00;9.20;;;;;;;21.39;67.84;100260.56;214491;1276;140015;-64
2022/08/12 20:49:46;;;;;;;10.40;9.40;;;;;;;21.35;67.95;100265.66;213483;1276;141497;-65
2022/08/12 20:55:05;;;;;;;11.60;10.10;;;;;;;21.31;68.20;100264.26;214363;1276;140670;-65
2022/08/12 21:00:22;;;;;;;11.80;10.60;;;;;;;21.31;68.35;100258.55;213984;1276;140961;-65
2022/08/12 21:11:15;;;;;;;11.30;9.40;;;;;;;21.20;68.98;100235.85;214801;1275;140779;-65
2022/08/12 21:16:20;;;;;;;10.60;9.70;;;;;;;21.18;69.25;100222.95;214139;1276;141710;-65
2022/08/12 21:21:39;;;;;;;11.80;10.70;;;;;;;21.07;69.28;100220.73;214007;1276;141218;-65
2022/08/12 21:26:57;;;;;;;11.10;10.00;;;;;;;20.90;69.78;100217.33;213610;1276;141741;-65
2022/08/12 21:32:06;;;;;;;11.70;10.50;;;;;;;20.87;70.20;100218.34;215510;1276;141475;-66
2022/08/12 21:37:30;;;;;;;10.40;9.40;;;;;;;20.87;70.41;100211.35;215891;1276;231024;-67
2022/08/12 21:42:40;;;;;;;10.60;9.60;;;;;;;20.87;70.57;100226.30;215729;1275;140887;-67
2022/08/12 21:47:46;;;;;;;13.40;11.00;;;;;;;20.81;70.83;100234.52;214043;1276;140464;-66
2022/08/12 21:52:56;;;;;;;11.60;10.50;;;;;;;20.59;70.83;100257.54;214820;1276;140910;-65
2022/08/12 21:58:10;;;;;;;15.20;11.70;;;;;;;20.53;71.55;100266.98;214582;1276;140874;-66
2022/08/12 22:09:06;;;;;;;10.70;9.80;;;;;;;20.59;71.98;100258.52;213126;1276;142242;-65
2022/08/12 22:14:21;;;;;;;11.20;10.10;;;;;;;20.57;72.09;100250.90;212867;1276;142730;-66
2022/08/12 22:19:27;;;;;;;11.80;10.60;;;;;;;20.56;72.41;100239.80;213237;1276;141317;-66
2022/08/12 22:24:37;;;;;;;12.60;10.80;;;;;;;20.56;72.45;100231.84;213711;1276;141548;-65
2022/08/12 22:40:31;;;;;;;12.30;11.10;;;;;;;20.41;73.14;100228.61;213421;1276;249193;-66
2022/08/12 22:51:03;;;;;;;13.30;11.90;;;;;;;20.53;73.70;100216.86;212959;1277;142254;-64
2022/08/12 22:56:09;;;;;;;16.90;13.30;;;;;;;20.53;73.80;100232.08;214410;1276;142935;-65
2022/08/12 23:01:18;;;;;;;19.20;13.00;;;;;;;20.49;73.92;100240.86;212933;1276;142034;-66
2022/08/12 23:06:47;;;;;;;12.20;11.00;;;;;;;20.39;73.79;100217.52;213407;1275;144822;-64
2022/08/12 23:11:58;;;;;;;11.80;10.70;;;;;;;20.30;74.13;100204.32;214363;1276;142633;-66
2022/08/12 23:17:03;;;;;;;16.60;9.70;;;;;;;20.28;74.39;100198.39;215404;1275;144246;-66
2022/08/12 23:22:10;;;;;;;8.70;7.90;;;;;;;20.07;74.15;100218.63;213482;1276;163812;-64
2022/08/12 23:33:00;;;;;;;15.50;10.50;;;;;;;19.74;75.07;100218.56;215745;1276;141672;-66
2022/08/12 23:38:05;;;;;;;13.20;11.00;;;;;;;19.85;75.66;100217.46;215556;1276;141769;-65
2022/08/12 23:43:11;;;;;;;11.60;10.50;;;;;;;19.92;75.65;100222.08;215751;1276;141530;-66
2022/08/12 23:48:15;;;;;;;11.70;10.50;;;;;;;19.97;75.75;100214.45;215658;1276;142712;-66
2022/08/12 23:53:34;;;;;;;12.20;11.00;;;;;;;20.05;75.93;100198.58;214813;1275;142492;-66
2022/08/12 23:58:48;;;;;;;16.10;11.20;;;;;;;20.12;75.90;100193.42;214857;1276;141195;-66
